Westgard — PDBQ — position and weather

sailwx.info

Track history (hours):
 
Tides and Currents Weather Stations Pressure Air Temp Water Temp Dewpoint Dewpoint Depression Visibility Wind Speed Wind Dir Waves Ship Positions

Westgard

Last reported at 2015-Jul-04 21:33 UTC. Time now 2015-Jul-04 22:31 UTC.
Position N 57°42' E 010°10'.

Length 57 m; draft 6 m.

Type: Ship. MMSI: 246457000.

Date/timePositionNaut miles runAvg speedWind from/ knotsBaromVisibWave heightAir tempDewpointWater temp
2015-Jul-04 21:33N 57°42' E 010°10'14 9.7
2015-Jul-04 20:05N 57°37' E 009°46'138 9.5
2015-Jul-04 05:32N 55°52' E 007°03'1410.4
2015-Jul-04 04:09N 55°41' E 006°46'10210.7
2015-Jul-03 18:33N 54°14' E 005°13'1110.8
2015-Jul-03 17:32N 54°04' E 005°04'1110.6
2015-Jul-03 16:28N 53°54' E 004°55'1010.2
2015-Jul-03 15:27N 53°44' E 004°51'910.0
2015-Jul-03 14:33N 53°35' E 004°48'10 9.6
2015-Jul-03 13:33N 53°26' E 004°42'19 9.4
2015-Jul-03 11:29N 53°07' E 004°36'9 9.2
2015-Jul-03 10:33N 52°59' E 004°33'10 9.7
2015-Jul-03 09:33N 52°49' E 004°33'9 9.4
2015-Jul-03 08:33N 52°40' E 004°31'10 9.7
2015-Jul-03 07:33N 52°30' E 004°30'4 2.1
2015-Jul-03 05:30N 52°28' E 004°36'0 0.0
2015-Jul-03 04:33N 52°28' E 004°36'0 0.0
2015-Jul-03 02:30N 52°28' E 004°36'0 0.0
2015-Jul-03 01:33N 52°28' E 004°36'0 0.0
2015-Jul-03 00:33N 52°28' E 004°36'0 0.0
2015-Jul-02 23:33N 52°28' E 004°36'0 0.0
2015-Jul-02 22:33N 52°28' E 004°36'0 0.0
2015-Jul-02 21:33N 52°28' E 004°36'0 0.0
2015-Jul-02 20:33N 52°28' E 004°36'0 0.0
2015-Jul-02 19:33N 52°28' E 004°36'0 0.0
2015-Jul-02 18:33N 52°28' E 004°36'0 0.0
2015-Jul-02 17:33N 52°28' E 004°36'0 0.0
2015-Jul-02 16:33N 52°28' E 004°36'0 0.0
2015-Jul-02 15:27N 52°28' E 004°36'0 0.0
2015-Jul-02 14:30N 52°28' E 004°36'0 0.0
2015-Jul-02 13:30N 52°28' E 004°36'0 0.0
2015-Jul-02 12:30N 52°28' E 004°36'0 0.0
2015-Jul-02 11:33N 52°28' E 004°36'0 0.0
2015-Jul-02 10:33N 52°28' E 004°36'0 0.0
2015-Jul-02 09:27N 52°28' E 004°36'0 0.0
2015-Jul-02 08:33N 52°28' E 004°36'0 0.0
2015-Jul-02 06:33N 52°28' E 004°36'0 0.0
2015-Jul-02 05:33N 52°28' E 004°36'0 0.0
2015-Jul-02 04:30N 52°28' E 004°36'0 0.0
2015-Jul-02 03:32N 52°28' E 004°36'0 0.0
2015-Jul-02 02:32N 52°28' E 004°36'0 0.0
2015-Jul-02 01:32N 52°28' E 004°36'0 0.0
2015-Jul-02 00:32N 52°28' E 004°36'0 0.0
2015-Jul-01 23:32N 52°28' E 004°36'0 0.0
2015-Jul-01 22:32N 52°28' E 004°36'0 0.0
2015-Jul-01 21:32N 52°28' E 004°36'0 0.0
2015-Jul-01 20:32N 52°28' E 004°36'0 0.0
2015-Jul-01 19:29N 52°28' E 004°36'0 0.0
2015-Jul-01 18:32N 52°28' E 004°36'0 0.0
2015-Jul-01 17:29N 52°28' E 004°36'0 0.0
2015-Jul-01 16:32N 52°28' E 004°36'0 0.0
2015-Jul-01 15:29N 52°28' E 004°36'0 0.0
2015-Jul-01 14:32N 52°28' E 004°36'0 0.0
2015-Jul-01 13:32N 52°28' E 004°36'0 0.0
2015-Jul-01 12:32N 52°28' E 004°36'0 0.0
2015-Jul-01 11:32N 52°28' E 004°36'1 1.5
2015-Jul-01 10:34N 52°28' E 004°34'9 9.2
2015-Jul-01 09:34N 52°34' E 004°22'1211.7
2015-Jul-01 08:33N 52°45' E 004°25'1211.7
2015-Jul-01 07:32N 52°57' E 004°32'1510.6
2015-Jul-01 06:07N 53°10' E 004°44'5 9.7
2015-Jul-01 05:33N 53°15' E 004°49'1010.4
2015-Jul-01 04:33N 53°23' E 004°60'10 9.8
2015-Jul-01 03:33N 53°28' E 005°14'1111.0
2015-Jul-01 02:33N 53°31' E 005°31'1212.4
2015-Jul-01 01:33N 53°34' E 005°52'1313.0
2015-Jul-01 00:33N 53°37' E 006°13'1312.8
2015-Jun-30 23:33N 53°36' E 006°35'1313.5
2015-Jun-30 22:33N 53°28' E 006°52'10 9.7
2015-Jun-30 21:33N 53°19' E 006°59'2 1.7
2015-Jun-30 20:27N 53°20' E 006°56'0 0.0
2015-Jun-30 19:33N 53°20' E 006°56'0 0.0
2015-Jun-30 18:33N 53°20' E 006°56'0 0.0
2015-Jun-30 17:30N 53°20' E 006°56'0 0.0
2015-Jun-30 16:33N 53°20' E 006°56'0 0.0
2015-Jun-30 15:33N 53°20' E 006°56'0 0.0
2015-Jun-30 14:33N 53°20' E 006°56'0 0.0
2015-Jun-30 13:33N 53°20' E 006°56'0 0.0
2015-Jun-30 12:33N 53°20' E 006°56'0 0.0
2015-Jun-30 11:27N 53°20' E 006°56'0 0.0
2015-Jun-30 10:21N 53°20' E 006°56'0 0.0
2015-Jun-30 09:33N 53°20' E 006°56'0 0.0
2015-Jun-30 08:33N 53°20' E 006°56'0 0.0
2015-Jun-30 07:33N 53°20' E 006°56'0 0.0
2015-Jun-30 06:32N 53°20' E 006°56'0 0.0
2015-Jun-30 05:32N 53°20' E 006°56'0 0.0
2015-Jun-30 04:32N 53°20' E 006°56'0 0.0
2015-Jun-30 03:29N 53°20' E 006°56'0 0.0
2015-Jun-30 02:32N 53°20' E 006°56'0 0.0
2015-Jun-30 01:32N 53°20' E 006°56'0 0.0
2015-Jun-30 00:26N 53°20' E 006°56'0 0.0
2015-Jun-29 23:32N 53°20' E 006°56'0 0.0
2015-Jun-29 22:29N 53°20' E 006°56'0 0.0
2015-Jun-29 21:23N 53°20' E 006°56'0 0.0
2015-Jun-29 20:32N 53°20' E 006°56'0 0.0
2015-Jun-29 19:32N 53°20' E 006°56'0 0.0
2015-Jun-29 18:29N 53°20' E 006°56'0 0.0
2015-Jun-29 17:32N 53°20' E 006°56'0 0.0
2015-Jun-29 16:32N 53°20' E 006°56'0 0.0
2015-Jun-29 15:32N 53°20' E 006°56'0 0.0
2015-Jun-29 14:32N 53°20' E 006°56'0 0.0
2015-Jun-29 13:32N 53°20' E 006°56'0 0.0
2015-Jun-29 12:29N 53°20' E 006°56'0 0.0
2015-Jun-29 11:32N 53°20' E 006°56'0 0.0
2015-Jun-29 10:32N 53°20' E 006°56'0 0.0
2015-Jun-29 09:32N 53°20' E 006°56'0 0.0
2015-Jun-29 08:32N 53°20' E 006°56'0 0.0
2015-Jun-29 07:32N 53°20' E 006°56'0 0.0
2015-Jun-29 06:32N 53°20' E 006°56'0 0.0
2015-Jun-29 05:32N 53°20' E 006°56'0 0.0
2015-Jun-29 04:32N 53°20' E 006°56'0 0.0
2015-Jun-29 03:32N 53°20' E 006°56'0 0.0
2015-Jun-29 02:32N 53°20' E 006°56'0 0.0
2015-Jun-29 01:32N 53°20' E 006°56'0 0.0
2015-Jun-29 00:32N 53°20' E 006°56'0 0.0
2015-Jun-28 23:32N 53°20' E 006°56'0 0.0
2015-Jun-28 22:31N 53°20' E 006°56'0 0.0
2015-Jun-28 21:31N 53°20' E 006°56'0 0.0
2015-Jun-28 20:31N 53°20' E 006°56'0 0.0
2015-Jun-28 19:31N 53°20' E 006°56'0 0.0
2015-Jun-28 18:31N 53°20' E 006°56'0 0.0
2015-Jun-28 17:28N 53°20' E 006°56'0 0.0
2015-Jun-28 16:31N 53°20' E 006°56'0 0.0
2015-Jun-28 15:31N 53°20' E 006°56'0 0.0
2015-Jun-28 14:31N 53°20' E 006°56'0 0.1
2015-Jun-28 13:33N 53°20' E 006°56'4 4.1
2015-Jun-28 12:33N 53°24' E 006°57'9 9.2
2015-Jun-28 11:33N 53°31' E 006°47'11 8.6
2015-Jun-28 10:20N 53°37' E 006°33'8 9.5
2015-Jun-28 09:32N 53°37' E 006°20'1010.0
2015-Jun-28 08:33N 53°36' E 006°03'1010.2
2015-Jun-28 07:33N 53°34' E 005°47'1010.4
2015-Jun-28 06:33N 53°31' E 005°30'1110.7
2015-Jun-28 05:33N 53°27' E 005°13'1110.9
2015-Jun-28 04:33N 53°22' E 004°57'1111.1
2015-Jun-28 03:33N 53°14' E 004°44'1212.1
2015-Jun-28 02:33N 53°05' E 004°31'1212.1
2015-Jun-28 01:33N 52°55' E 004°18'1212.0
2015-Jun-28 00:33N 52°46' E 004°05'1211.7
2015-Jun-27 23:33N 52°37' E 003°53'1211.7
2015-Jun-27 22:33N 52°29' E 003°40'1211.6
2015-Jun-27 21:33N 52°20' E 003°27'51 9.9
2015-Jun-27 16:25N 51°41' E 002°34'8 8.8
2015-Jun-27 15:33N 51°35' E 002°26'9 9.1
2015-Jun-27 14:33N 51°28' E 002°16'10 9.4
2015-Jun-27 13:33N 51°20' E 002°08'10 9.6
2015-Jun-27 12:33N 51°12' E 001°60'10 9.6
2015-Jun-27 11:33N 51°06' E 001°48'205 9.7
2015-Jun-26 14:30N 50°05' W 003°20'117 6.5
2015-Jun-25 20:25N 51°04' W 005°59'8 8.7
2015-Jun-25 19:30N 51°12' W 005°58'10 8.9
2015-Jun-25 18:25N 51°22' W 005°58'9 8.8
2015-Jun-25 17:21N 51°31' W 005°57'16 8.6
2015-Jun-25 15:29N 51°47' W 005°56'11 7.7
2015-Jun-25 14:05N 51°58' W 005°54'5 7.6
2015-Jun-25 13:27N 52°02' W 005°53'7 7.9
2015-Jun-25 12:32N 52°10' W 005°52'9 8.6
2015-Jun-25 11:32N 52°18' W 005°51'9 9.4
2015-Jun-25 10:32N 52°27' W 005°49'106 9.6
2015-Jun-24 23:33N 54°12' W 005°24'9 9.3
2015-Jun-24 22:33N 54°21' W 005°22'9 9.0
2015-Jun-24 21:33N 54°30' W 005°22'  
Track history (hours):
 
Tides and Currents Weather Stations Pressure Air Temp Water Temp Dewpoint Dewpoint Depression Visibility Wind Speed Wind Dir Waves Ship Positions

Westgard

Last reported at 2015-Jul-04 21:33 UTC. Time now 2015-Jul-04 22:31 UTC.
Position N 57°42' E 010°10'.

Length 57 m; draft 6 m.

Type: Ship. MMSI: 246457000.

Date/timePositionNaut miles runAvg speedWind from/ knotsBaromVisibWave heightAir tempDewpointWater temp
2015-Jul-04 21:33N 57°42' E 010°10'14 9.7
2015-Jul-04 20:05N 57°37' E 009°46'138 9.5
2015-Jul-04 05:32N 55°52' E 007°03'1410.4
2015-Jul-04 04:09N 55°41' E 006°46'10210.7
2015-Jul-03 18:33N 54°14' E 005°13'1110.8
2015-Jul-03 17:32N 54°04' E 005°04'1110.6
2015-Jul-03 16:28N 53°54' E 004°55'1010.2
2015-Jul-03 15:27N 53°44' E 004°51'910.0
2015-Jul-03 14:33N 53°35' E 004°48'10 9.6
2015-Jul-03 13:33N 53°26' E 004°42'19 9.4
2015-Jul-03 11:29N 53°07' E 004°36'9 9.2
2015-Jul-03 10:33N 52°59' E 004°33'10 9.7
2015-Jul-03 09:33N 52°49' E 004°33'9 9.4
2015-Jul-03 08:33N 52°40' E 004°31'10 9.7
2015-Jul-03 07:33N 52°30' E 004°30'4 2.1
2015-Jul-03 05:30N 52°28' E 004°36'0 0.0
2015-Jul-03 04:33N 52°28' E 004°36'0 0.0
2015-Jul-03 02:30N 52°28' E 004°36'0 0.0
2015-Jul-03 01:33N 52°28' E 004°36'0 0.0
2015-Jul-03 00:33N 52°28' E 004°36'0 0.0
2015-Jul-02 23:33N 52°28' E 004°36'0 0.0
2015-Jul-02 22:33N 52°28' E 004°36'0 0.0
2015-Jul-02 21:33N 52°28' E 004°36'0 0.0
2015-Jul-02 20:33N 52°28' E 004°36'0 0.0
2015-Jul-02 19:33N 52°28' E 004°36'0 0.0
2015-Jul-02 18:33N 52°28' E 004°36'0 0.0
2015-Jul-02 17:33N 52°28' E 004°36'0 0.0
2015-Jul-02 16:33N 52°28' E 004°36'0 0.0
2015-Jul-02 15:27N 52°28' E 004°36'0 0.0
2015-Jul-02 14:30N 52°28' E 004°36'0 0.0
2015-Jul-02 13:30N 52°28' E 004°36'0 0.0
2015-Jul-02 12:30N 52°28' E 004°36'0 0.0
2015-Jul-02 11:33N 52°28' E 004°36'0 0.0
2015-Jul-02 10:33N 52°28' E 004°36'0 0.0
2015-Jul-02 09:27N 52°28' E 004°36'0 0.0
2015-Jul-02 08:33N 52°28' E 004°36'0 0.0
2015-Jul-02 06:33N 52°28' E 004°36'0 0.0
2015-Jul-02 05:33N 52°28' E 004°36'0 0.0
2015-Jul-02 04:30N 52°28' E 004°36'0 0.0
2015-Jul-02 03:32N 52°28' E 004°36'0 0.0
2015-Jul-02 02:32N 52°28' E 004°36'0 0.0
2015-Jul-02 01:32N 52°28' E 004°36'0 0.0
2015-Jul-02 00:32N 52°28' E 004°36'0 0.0
2015-Jul-01 23:32N 52°28' E 004°36'0 0.0
2015-Jul-01 22:32N 52°28' E 004°36'0 0.0
2015-Jul-01 21:32N 52°28' E 004°36'0 0.0
2015-Jul-01 20:32N 52°28' E 004°36'0 0.0
2015-Jul-01 19:29N 52°28' E 004°36'0 0.0
2015-Jul-01 18:32N 52°28' E 004°36'0 0.0
2015-Jul-01 17:29N 52°28' E 004°36'0 0.0
2015-Jul-01 16:32N 52°28' E 004°36'0 0.0
2015-Jul-01 15:29N 52°28' E 004°36'0 0.0
2015-Jul-01 14:32N 52°28' E 004°36'0 0.0
2015-Jul-01 13:32N 52°28' E 004°36'0 0.0
2015-Jul-01 12:32N 52°28' E 004°36'0 0.0
2015-Jul-01 11:32N 52°28' E 004°36'1 1.5
2015-Jul-01 10:34N 52°28' E 004°34'9 9.2
2015-Jul-01 09:34N 52°34' E 004°22'1211.7
2015-Jul-01 08:33N 52°45' E 004°25'1211.7
2015-Jul-01 07:32N 52°57' E 004°32'1510.6
2015-Jul-01 06:07N 53°10' E 004°44'5 9.7
2015-Jul-01 05:33N 53°15' E 004°49'1010.4
2015-Jul-01 04:33N 53°23' E 004°60'10 9.8
2015-Jul-01 03:33N 53°28' E 005°14'1111.0
2015-Jul-01 02:33N 53°31' E 005°31'1212.4
2015-Jul-01 01:33N 53°34' E 005°52'1313.0
2015-Jul-01 00:33N 53°37' E 006°13'1312.8
2015-Jun-30 23:33N 53°36' E 006°35'1313.5
2015-Jun-30 22:33N 53°28' E 006°52'10 9.7
2015-Jun-30 21:33N 53°19' E 006°59'2 1.7
2015-Jun-30 20:27N 53°20' E 006°56'0 0.0
2015-Jun-30 19:33N 53°20' E 006°56'0 0.0
2015-Jun-30 18:33N 53°20' E 006°56'0 0.0
2015-Jun-30 17:30N 53°20' E 006°56'0 0.0
2015-Jun-30 16:33N 53°20' E 006°56'0 0.0
2015-Jun-30 15:33N 53°20' E 006°56'0 0.0
2015-Jun-30 14:33N 53°20' E 006°56'0 0.0
2015-Jun-30 13:33N 53°20' E 006°56'0 0.0
2015-Jun-30 12:33N 53°20' E 006°56'0 0.0
2015-Jun-30 11:27N 53°20' E 006°56'0 0.0
2015-Jun-30 10:21N 53°20' E 006°56'0 0.0
2015-Jun-30 09:33N 53°20' E 006°56'0 0.0
2015-Jun-30 08:33N 53°20' E 006°56'0 0.0
2015-Jun-30 07:33N 53°20' E 006°56'0 0.0
2015-Jun-30 06:32N 53°20' E 006°56'0 0.0
2015-Jun-30 05:32N 53°20' E 006°56'0 0.0
2015-Jun-30 04:32N 53°20' E 006°56'0 0.0
2015-Jun-30 03:29N 53°20' E 006°56'0 0.0
2015-Jun-30 02:32N 53°20' E 006°56'0 0.0
2015-Jun-30 01:32N 53°20' E 006°56'0 0.0
2015-Jun-30 00:26N 53°20' E 006°56'0 0.0
2015-Jun-29 23:32N 53°20' E 006°56'0 0.0
2015-Jun-29 22:29N 53°20' E 006°56'0 0.0
2015-Jun-29 21:23N 53°20' E 006°56'0 0.0
2015-Jun-29 20:32N 53°20' E 006°56'0 0.0
2015-Jun-29 19:32N 53°20' E 006°56'0 0.0
2015-Jun-29 18:29N 53°20' E 006°56'0 0.0
2015-Jun-29 17:32N 53°20' E 006°56'0 0.0
2015-Jun-29 16:32N 53°20' E 006°56'0 0.0
2015-Jun-29 15:32N 53°20' E 006°56'0 0.0
2015-Jun-29 14:32N 53°20' E 006°56'0 0.0
2015-Jun-29 13:32N 53°20' E 006°56'0 0.0
2015-Jun-29 12:29N 53°20' E 006°56'0 0.0
2015-Jun-29 11:32N 53°20' E 006°56'0 0.0
2015-Jun-29 10:32N 53°20' E 006°56'0 0.0
2015-Jun-29 09:32N 53°20' E 006°56'0 0.0
2015-Jun-29 08:32N 53°20' E 006°56'0 0.0
2015-Jun-29 07:32N 53°20' E 006°56'0 0.0
2015-Jun-29 06:32N 53°20' E 006°56'0 0.0
2015-Jun-29 05:32N 53°20' E 006°56'0 0.0
2015-Jun-29 04:32N 53°20' E 006°56'0 0.0
2015-Jun-29 03:32N 53°20' E 006°56'0 0.0
2015-Jun-29 02:32N 53°20' E 006°56'0 0.0
2015-Jun-29 01:32N 53°20' E 006°56'0 0.0
2015-Jun-29 00:32N 53°20' E 006°56'0 0.0
2015-Jun-28 23:32N 53°20' E 006°56'0 0.0
2015-Jun-28 22:31N 53°20' E 006°56'0 0.0
2015-Jun-28 21:31N 53°20' E 006°56'0 0.0
2015-Jun-28 20:31N 53°20' E 006°56'0 0.0
2015-Jun-28 19:31N 53°20' E 006°56'0 0.0
2015-Jun-28 18:31N 53°20' E 006°56'0 0.0
2015-Jun-28 17:28N 53°20' E 006°56'0 0.0
2015-Jun-28 16:31N 53°20' E 006°56'0 0.0
2015-Jun-28 15:31N 53°20' E 006°56'0 0.0
2015-Jun-28 14:31N 53°20' E 006°56'0 0.1
2015-Jun-28 13:33N 53°20' E 006°56'4 4.1
2015-Jun-28 12:33N 53°24' E 006°57'9 9.2
2015-Jun-28 11:33N 53°31' E 006°47'11 8.6
2015-Jun-28 10:20N 53°37' E 006°33'8 9.5
2015-Jun-28 09:32N 53°37' E 006°20'1010.0
2015-Jun-28 08:33N 53°36' E 006°03'1010.2
2015-Jun-28 07:33N 53°34' E 005°47'1010.4
2015-Jun-28 06:33N 53°31' E 005°30'1110.7
2015-Jun-28 05:33N 53°27' E 005°13'1110.9
2015-Jun-28 04:33N 53°22' E 004°57'1111.1
2015-Jun-28 03:33N 53°14' E 004°44'1212.1
2015-Jun-28 02:33N 53°05' E 004°31'1212.1
2015-Jun-28 01:33N 52°55' E 004°18'1212.0
2015-Jun-28 00:33N 52°46' E 004°05'1211.7
2015-Jun-27 23:33N 52°37' E 003°53'1211.7
2015-Jun-27 22:33N 52°29' E 003°40'1211.6
2015-Jun-27 21:33N 52°20' E 003°27'51 9.9
2015-Jun-27 16:25N 51°41' E 002°34'8 8.8
2015-Jun-27 15:33N 51°35' E 002°26'9 9.1
2015-Jun-27 14:33N 51°28' E 002°16'10 9.4
2015-Jun-27 13:33N 51°20' E 002°08'10 9.6
2015-Jun-27 12:33N 51°12' E 001°60'10 9.6
2015-Jun-27 11:33N 51°06' E 001°48'205 9.7
2015-Jun-26 14:30N 50°05' W 003°20'117 6.5
2015-Jun-25 20:25N 51°04' W 005°59'8 8.7
2015-Jun-25 19:30N 51°12' W 005°58'10 8.9
2015-Jun-25 18:25N 51°22' W 005°58'9 8.8
2015-Jun-25 17:21N 51°31' W 005°57'16 8.6
2015-Jun-25 15:29N 51°47' W 005°56'11 7.7
2015-Jun-25 14:05N 51°58' W 005°54'5 7.6
2015-Jun-25 13:27N 52°02' W 005°53'7 7.9
2015-Jun-25 12:32N 52°10' W 005°52'9 8.6
2015-Jun-25 11:32N 52°18' W 005°51'9 9.4
2015-Jun-25 10:32N 52°27' W 005°49'106 9.6
2015-Jun-24 23:33N 54°12' W 005°24'9 9.3
2015-Jun-24 22:33N 54°21' W 005°22'9 9.0
2015-Jun-24 21:33N 54°30' W 005°22'  

Dump ship's entire track history